createdAt,value
2019-03-29T00:04:52.971Z,74.00
2019-03-29T00:09:56.810Z,73.80
2019-03-29T00:15:00.390Z,72.90
2019-03-29T00:20:06.171Z,72.26
2019-03-29T00:25:09.841Z,72.07
2019-03-29T00:30:13.890Z,71.90
2019-03-29T00:35:17.421Z,71.84
2019-03-29T00:40:20.969Z,71.61
2019-03-29T00:45:24.540Z,71.33
2019-03-29T00:50:28.038Z,70.99
2019-03-29T00:55:31.581Z,70.85
2019-03-29T01:00:35.104Z,70.58
2019-03-29T01:05:38.605Z,70.80
2019-03-29T01:10:42.813Z,71.07
2019-03-29T01:15:46.358Z,71.22
2019-03-29T01:20:49.896Z,71.57
2019-03-29T01:25:53.426Z,71.57
2019-03-29T01:30:56.942Z,71.33
2019-03-29T01:36:01.301Z,71.17
2019-03-29T01:41:05.695Z,71.40
2019-03-29T01:46:09.230Z,71.44
2019-03-29T01:51:12.856Z,71.20
2019-03-29T01:56:16.439Z,70.65
2019-03-29T02:01:19.941Z,71.24
2019-03-29T02:06:23.488Z,72.13
2019-03-29T02:11:27.033Z,72.68
2019-03-29T02:16:30.544Z,73.51
2019-03-29T02:21:34.058Z,74.12
2019-03-29T02:26:37.569Z,74.40
2019-03-29T02:31:42.377Z,74.81
2019-03-29T02:36:46.399Z,75.62
2019-03-29T02:41:49.911Z,75.61
2019-03-29T02:46:53.866Z,76.32
2019-03-29T02:51:57.835Z,76.46
2019-03-29T02:57:01.419Z,76.28
2019-03-29T03:02:05.063Z,74.83
2019-03-29T03:07:08.597Z,76.05
2019-03-29T03:12:12.126Z,76.63
2019-03-29T03:17:15.676Z,76.55
2019-03-29T03:22:19.324Z,76.21
2019-03-29T03:27:23.698Z,76.38
2019-03-29T03:38:31.020Z,75.93
2019-03-29T03:43:34.551Z,77.07
2019-03-29T03:48:38.338Z,76.80
2019-03-29T03:53:42.011Z,77.08
2019-03-29T03:58:46.570Z,76.77
2019-03-29T04:03:50.123Z,76.64
2019-03-29T04:08:53.667Z,76.67
2019-03-29T04:13:58.631Z,76.84
2019-03-29T04:19:02.279Z,76.59
2019-03-29T04:24:05.838Z,76.22
2019-03-29T04:29:09.648Z,76.08
2019-03-29T04:34:13.864Z,75.85
2019-03-29T04:39:17.703Z,75.95
2019-03-29T04:44:21.427Z,75.75
2019-03-29T04:49:25.039Z,76.04
2019-03-29T04:54:28.602Z,76.40
2019-03-29T04:59:32.179Z,76.44
2019-03-29T05:04:35.735Z,76.39
2019-03-29T05:09:39.291Z,75.99
2019-03-29T05:14:42.972Z,76.23
2019-03-29T05:19:46.580Z,76.17
2019-03-29T05:24:50.177Z,76.36
2019-03-29T05:29:53.964Z,76.18
2019-03-29T05:34:58.313Z,76.12
2019-03-29T05:40:02.450Z,75.86
2019-03-29T05:45:07.173Z,75.83
2019-03-29T05:50:11.024Z,75.77
2019-03-29T05:55:14.571Z,75.79
2019-03-29T06:00:19.530Z,75.83
2019-03-29T06:05:23.091Z,75.66
2019-03-29T06:10:26.622Z,75.64
2019-03-29T06:15:30.146Z,75.58
2019-03-29T06:20:33.712Z,75.60
2019-03-29T06:25:37.283Z,75.52
2019-03-29T06:30:40.859Z,75.37
2019-03-29T06:35:49.526Z,75.18
2019-03-29T06:41:02.710Z,74.86
2019-03-29T06:45:58.496Z,74.44
2019-03-29T06:51:02.023Z,74.00
2019-03-29T06:56:05.685Z,73.53
2019-03-29T07:01:09.224Z,73.12
2019-03-29T07:06:12.775Z,72.82
2019-03-29T07:11:17.964Z,72.65
2019-03-29T07:16:21.755Z,72.31
2019-03-29T07:21:25.304Z,71.82
2019-03-29T07:26:28.852Z,71.43
2019-03-29T07:31:32.392Z,71.23
2019-03-29T07:36:35.923Z,70.94
2019-03-29T07:41:39.481Z,70.40
2019-03-29T07:46:43.056Z,70.07
2019-03-29T07:51:46.654Z,69.49
2019-03-29T07:56:50.226Z,68.89
2019-03-29T08:01:53.770Z,68.29
2019-03-29T08:06:57.312Z,66.87
2019-03-29T08:12:00.858Z,66.19
2019-03-29T08:17:04.398Z,65.12
2019-03-29T08:22:07.928Z,64.67
2019-03-29T08:27:11.467Z,63.72
2019-03-29T08:32:15.018Z,63.35
2019-03-29T08:37:18.571Z,62.74
2019-03-29T08:42:22.104Z,62.11
2019-03-29T08:47:25.631Z,62.06
2019-03-29T08:52:29.265Z,62.02
2019-03-29T08:57:32.798Z,60.34
2019-03-29T09:02:36.595Z,59.60
2019-03-29T09:07:44.963Z,59.43
2019-03-29T09:12:45.561Z,59.58
2019-03-29T09:17:49.205Z,59.45
2019-03-29T09:22:52.756Z,59.33
2019-03-29T09:27:56.297Z,59.26
2019-03-29T09:32:59.834Z,59.50
2019-03-29T09:38:03.392Z,58.85
2019-03-29T09:43:08.030Z,58.49
2019-03-29T09:48:12.063Z,58.02
2019-03-29T09:53:15.617Z,56.95
2019-03-29T09:58:19.159Z,57.99
2019-03-29T10:03:22.710Z,55.58
2019-03-29T10:08:26.256Z,56.60
2019-03-29T10:13:29.793Z,56.57
2019-03-29T10:18:33.364Z,55.59
2019-03-29T10:23:36.904Z,56.31
2019-03-29T10:28:40.458Z,56.34
2019-03-29T10:33:43.994Z,55.10
2019-03-29T10:38:47.575Z,55.90
2019-03-29T10:43:51.117Z,55.05
2019-03-29T10:48:54.667Z,55.31
2019-03-29T10:53:58.193Z,54.45
2019-03-29T10:59:01.723Z,54.45
2019-03-29T11:04:05.270Z,55.69
2019-03-29T11:09:08.855Z,55.07
2019-03-29T11:14:12.392Z,54.31
2019-03-29T11:19:15.951Z,53.38
2019-03-29T11:24:19.482Z,55.86
2019-03-29T11:29:23.023Z,53.48
2019-03-29T11:34:26.601Z,53.26
2019-03-29T11:39:30.167Z,53.91
2019-03-29T11:44:37.385Z,53.46
2019-03-29T11:49:40.915Z,52.69
2019-03-29T11:54:51.230Z,53.34
2019-03-29T11:59:56.031Z,52.54
2019-03-29T12:05:01.058Z,53.42
2019-03-29T12:10:06.396Z,52.06
2019-03-29T12:15:10.558Z,52.71
2019-03-29T12:20:14.102Z,53.48
2019-03-29T12:25:17.649Z,52.28
2019-03-29T12:30:31.138Z,52.85
2019-03-29T12:35:29.713Z,53.11
2019-03-29T12:40:48.822Z,50.96
2019-03-29T12:46:01.468Z,51.77
2019-03-29T12:51:14.833Z,51.25
2019-03-29T12:56:42.194Z,51.10
2019-03-29T13:01:50.973Z,50.71
2019-03-29T13:07:06.862Z,49.08
2019-03-29T13:12:10.750Z,48.84
2019-03-29T13:17:15.771Z,48.80
2019-03-29T13:22:20.501Z,48.65
2019-03-29T13:27:26.284Z,51.74
2019-03-29T13:32:33.593Z,49.95
2019-03-29T13:37:39.168Z,51.25
2019-03-29T13:42:45.013Z,50.42
2019-03-29T13:47:50.067Z,52.25
2019-03-29T13:52:53.662Z,50.98
2019-03-29T13:57:57.194Z,49.90
2019-03-29T14:03:00.732Z,50.23
2019-03-29T14:08:04.299Z,49.28
2019-03-29T14:13:07.828Z,49.70
2019-03-29T14:18:11.395Z,51.89
2019-03-29T14:23:14.931Z,50.24
2019-03-29T14:28:18.468Z,49.41
2019-03-29T14:33:22.120Z,49.17
2019-03-29T14:38:25.662Z,49.16
2019-03-29T14:43:29.195Z,47.80
2019-03-29T14:48:32.736Z,48.55
2019-03-29T14:53:36.286Z,50.06
2019-03-29T14:58:39.829Z,49.53
2019-03-29T15:03:43.372Z,48.89
2019-03-29T15:08:49.734Z,47.25
2019-03-29T15:13:52.533Z,47.03
2019-03-29T15:18:56.090Z,47.37
2019-03-29T15:24:00.262Z,47.62
2019-03-29T15:29:04.512Z,47.08
2019-03-29T15:34:08.311Z,46.93
2019-03-29T15:39:11.851Z,46.96
2019-03-29T15:44:15.414Z,45.78
2019-03-29T15:49:18.966Z,45.57
2019-03-29T15:54:22.517Z,45.60
2019-03-29T15:59:26.151Z,45.47
2019-03-29T16:04:29.686Z,46.63
2019-03-29T16:09:33.410Z,47.74
2019-03-29T16:14:37.046Z,46.28
2019-03-29T16:19:41.374Z,45.87
2019-03-29T16:24:45.870Z,45.83
2019-03-29T16:29:50.518Z,45.24
2019-03-29T16:34:54.195Z,45.28
2019-03-29T16:39:57.723Z,45.98
2019-03-29T16:45:01.280Z,47.13
2019-03-29T16:50:05.661Z,47.47
2019-03-29T16:55:13.641Z,47.51
2019-03-29T17:00:15.040Z,48.19
2019-03-29T17:05:21.181Z,48.27
2019-03-29T17:10:24.777Z,48.11
2019-03-29T17:15:30.606Z,48.79
2019-03-29T17:20:34.145Z,49.27
2019-03-29T17:25:37.775Z,49.96
2019-03-29T17:30:48.633Z,50.75
2019-03-29T17:35:52.269Z,51.87
2019-03-29T17:41:02.934Z,52.55
2019-03-29T17:46:16.234Z,53.08
2019-03-29T17:51:11.912Z,53.71
2019-03-29T17:56:15.496Z,53.99
2019-03-29T18:01:19.080Z,54.52
2019-03-29T18:06:22.635Z,55.01
2019-03-29T18:11:26.185Z,55.29
2019-03-29T18:16:31.107Z,56.56
2019-03-29T18:21:34.853Z,57.71
2019-03-29T18:26:38.404Z,58.84
2019-03-29T18:31:41.945Z,59.35
2019-03-29T18:36:49.373Z,59.61
2019-03-29T18:41:52.903Z,59.85
2019-03-29T18:46:56.442Z,60.25
2019-03-29T18:52:00.884Z,60.36
2019-03-29T18:57:04.770Z,60.95
2019-03-29T19:02:08.309Z,61.67
2019-03-29T19:07:11.858Z,62.15
2019-03-29T19:12:15.442Z,62.29
2019-03-29T19:17:19.207Z,62.81
2019-03-29T19:22:22.802Z,63.67
2019-03-29T19:27:26.408Z,64.40
2019-03-29T19:32:29.961Z,64.97
2019-03-29T19:37:33.540Z,65.61
2019-03-29T19:42:37.105Z,65.81
2019-03-29T19:47:40.648Z,65.77
2019-03-29T19:52:44.188Z,65.92
2019-03-29T19:57:47.882Z,66.48
2019-03-29T20:02:51.526Z,67.22
2019-03-29T20:07:56.101Z,68.07
2019-03-29T20:13:00.095Z,68.74
2019-03-29T20:18:03.696Z,69.38
2019-03-29T20:23:07.268Z,69.37
2019-03-29T20:28:10.858Z,69.36
2019-03-29T20:33:14.400Z,69.54
2019-03-29T20:38:18.009Z,69.24
2019-03-29T20:43:21.536Z,70.21
2019-03-29T20:48:25.080Z,70.49
2019-03-29T20:53:28.634Z,70.60
2019-03-29T20:58:32.296Z,70.51
2019-03-29T21:03:35.968Z,70.81
2019-03-29T21:08:39.490Z,70.63
2019-03-29T21:13:43.178Z,70.82
2019-03-29T21:18:46.764Z,71.26
2019-03-29T21:23:50.323Z,71.58
2019-03-29T21:28:58.282Z,71.56
2019-03-29T21:34:12.919Z,72.29
2019-03-29T21:39:23.632Z,72.24
2019-03-29T21:44:31.346Z,72.88
2019-03-29T21:49:43.821Z,74.55
2019-03-29T21:54:51.893Z,74.71
2019-03-29T22:00:01.824Z,75.40
2019-03-29T22:05:12.686Z,76.12
2019-03-29T22:10:32.484Z,74.90
2019-03-29T22:15:37.513Z,75.64
2019-03-29T22:20:56.380Z,74.35
2019-03-29T22:26:09.371Z,75.31
2019-03-29T22:31:22.769Z,75.19
2019-03-29T22:36:27.421Z,75.19
2019-03-29T22:41:36.068Z,74.95
2019-03-29T22:46:42.474Z,74.46
2019-03-29T22:52:00.621Z,74.87
2019-03-29T22:57:07.217Z,75.14
2019-03-29T23:02:25.961Z,74.58
2019-03-29T23:07:29.629Z,74.89
2019-03-29T23:12:33.229Z,75.40
2019-03-29T23:17:36.778Z,76.19
2019-03-29T23:22:40.510Z,76.43
2019-03-29T23:27:44.073Z,76.33
2019-03-29T23:32:47.673Z,75.32
2019-03-29T23:37:51.243Z,75.96
2019-03-29T23:42:54.770Z,75.62
2019-03-29T23:47:58.399Z,75.48
2019-03-29T23:53:02.258Z,75.64
2019-03-29T23:58:05.888Z,76.03
